sensor_id;sensor_type;location;lat;lon;timestamp;P1;durP1;ratioP1;P2;durP2;ratioP2
4278;SDS011;2153;47.744;10.580;2022-08-01T00:00:48;16.10;;;2.30;;
4278;SDS011;2153;47.744;10.580;2022-08-01T00:03:14;14.10;;;2.70;;
4278;SDS011;2153;47.744;10.580;2022-08-01T00:05:41;13.03;;;2.70;;
4278;SDS011;2153;47.744;10.580;2022-08-01T00:08:09;12.43;;;2.23;;
4278;SDS011;2153;47.744;10.580;2022-08-01T00:10:36;13.60;;;2.43;;
4278;SDS011;2153;47.744;10.580;2022-08-01T00:13:02;13.20;;;2.17;;
4278;SDS011;2153;47.744;10.580;2022-08-01T00:15:29;13.40;;;2.33;;
4278;SDS011;2153;47.744;10.580;2022-08-01T00:17:58;12.53;;;2.90;;
4278;SDS011;2153;47.744;10.580;2022-08-01T00:20:26;16.03;;;2.83;;
4278;SDS011;2153;47.744;10.580;2022-08-01T00:22:52;21.00;;;3.00;;
4278;SDS011;2153;47.744;10.580;2022-08-01T00:25:19;12.87;;;2.80;;
4278;SDS011;2153;47.744;10.580;2022-08-01T00:27:46;14.13;;;2.90;;
4278;SDS011;2153;47.744;10.580;2022-08-01T00:30:12;12.67;;;2.60;;
4278;SDS011;2153;47.744;10.580;2022-08-01T00:32:39;14.23;;;3.40;;
4278;SDS011;2153;47.744;10.580;2022-08-01T00:35:08;14.50;;;2.93;;
4278;SDS011;2153;47.744;10.580;2022-08-01T00:37:34;15.63;;;3.27;;
4278;SDS011;2153;47.744;10.580;2022-08-01T00:40:01;15.27;;;3.10;;
4278;SDS011;2153;47.744;10.580;2022-08-01T00:42:28;13.53;;;2.80;;
4278;SDS011;2153;47.744;10.580;2022-08-01T00:44:55;13.80;;;3.20;;
4278;SDS011;2153;47.744;10.580;2022-08-01T00:47:22;16.00;;;2.80;;
4278;SDS011;2153;47.744;10.580;2022-08-01T00:49:49;15.37;;;2.90;;
4278;SDS011;2153;47.744;10.580;2022-08-01T00:52:17;15.93;;;2.83;;
4278;SDS011;2153;47.744;10.580;2022-08-01T00:54:44;13.90;;;2.70;;
4278;SDS011;2153;47.744;10.580;2022-08-01T00:57:11;14.30;;;3.13;;
4278;SDS011;2153;47.744;10.580;2022-08-01T00:59:38;14.97;;;3.57;;
4278;SDS011;2153;47.744;10.580;2022-08-01T01:02:06;15.40;;;2.87;;
4278;SDS011;2153;47.744;10.580;2022-08-01T01:04:33;16.40;;;3.20;;
4278;SDS011;2153;47.744;10.580;2022-08-01T01:07:02;13.30;;;3.07;;
4278;SDS011;2153;47.744;10.580;2022-08-01T01:09:34;15.40;;;2.83;;
4278;SDS011;2153;47.744;10.580;2022-08-01T01:12:12;15.37;;;3.27;;
4278;SDS011;2153;47.744;10.580;2022-08-01T01:14:46;15.60;;;2.77;;
4278;SDS011;2153;47.744;10.580;2022-08-01T01:17:19;13.37;;;3.23;;
4278;SDS011;2153;47.744;10.580;2022-08-01T01:19:55;16.00;;;3.00;;
4278;SDS011;2153;47.744;10.580;2022-08-01T01:22:30;14.50;;;3.00;;
4278;SDS011;2153;47.744;10.580;2022-08-01T01:25:25;13.40;;;3.10;;
4278;SDS011;2153;47.744;10.580;2022-08-01T01:28:13;12.97;;;2.80;;
4278;SDS011;2153;47.744;10.580;2022-08-01T01:30:49;12.60;;;2.37;;
4278;SDS011;2153;47.744;10.580;2022-08-01T01:33:19;15.20;;;3.17;;
4278;SDS011;2153;47.744;10.580;2022-08-01T01:35:49;13.20;;;3.20;;
4278;SDS011;2153;47.744;10.580;2022-08-01T01:38:20;13.47;;;3.27;;
4278;SDS011;2153;47.744;10.580;2022-08-01T01:40:50;16.50;;;3.00;;
4278;SDS011;2153;47.744;10.580;2022-08-01T01:43:18;16.83;;;4.20;;
4278;SDS011;2153;47.744;10.580;2022-08-01T01:45:47;13.47;;;3.00;;
4278;SDS011;2153;47.744;10.580;2022-08-01T01:48:16;15.10;;;3.40;;
4278;SDS011;2153;47.744;10.580;2022-08-01T01:50:45;13.93;;;2.60;;
4278;SDS011;2153;47.744;10.580;2022-08-01T01:53:15;12.93;;;2.97;;
4278;SDS011;2153;47.744;10.580;2022-08-01T01:55:46;17.40;;;3.43;;
4278;SDS011;2153;47.744;10.580;2022-08-01T01:58:16;14.57;;;3.20;;
4278;SDS011;2153;47.744;10.580;2022-08-01T02:00:44;14.87;;;2.93;;
4278;SDS011;2153;47.744;10.580;2022-08-01T02:03:14;14.10;;;3.30;;
4278;SDS011;2153;47.744;10.580;2022-08-01T02:05:42;26.43;;;3.10;;
4278;SDS011;2153;47.744;10.580;2022-08-01T02:08:09;25.33;;;3.20;;
4278;SDS011;2153;47.744;10.580;2022-08-01T02:10:37;16.10;;;3.17;;
4278;SDS011;2153;47.744;10.580;2022-08-01T02:13:06;18.03;;;3.37;;
4278;SDS011;2153;47.744;10.580;2022-08-01T02:15:36;14.47;;;3.27;;
4278;SDS011;2153;47.744;10.580;2022-08-01T02:18:04;16.40;;;3.57;;
4278;SDS011;2153;47.744;10.580;2022-08-01T02:20:34;22.53;;;3.23;;
4278;SDS011;2153;47.744;10.580;2022-08-01T02:23:06;15.93;;;3.73;;
4278;SDS011;2153;47.744;10.580;2022-08-01T02:25:38;18.73;;;3.87;;
4278;SDS011;2153;47.744;10.580;2022-08-01T02:28:09;19.13;;;3.20;;
4278;SDS011;2153;47.744;10.580;2022-08-01T02:30:42;19.20;;;3.17;;
4278;SDS011;2153;47.744;10.580;2022-08-01T02:33:14;14.40;;;3.33;;
4278;SDS011;2153;47.744;10.580;2022-08-01T02:35:45;15.23;;;3.90;;
4278;SDS011;2153;47.744;10.580;2022-08-01T02:38:16;13.00;;;2.77;;
4278;SDS011;2153;47.744;10.580;2022-08-01T02:40:45;13.47;;;3.07;;
4278;SDS011;2153;47.744;10.580;2022-08-01T02:43:15;13.03;;;3.17;;
4278;SDS011;2153;47.744;10.580;2022-08-01T02:45:45;19.77;;;3.20;;
4278;SDS011;2153;47.744;10.580;2022-08-01T02:48:15;14.27;;;3.20;;
4278;SDS011;2153;47.744;10.580;2022-08-01T02:50:47;14.50;;;3.10;;
4278;SDS011;2153;47.744;10.580;2022-08-01T02:53:15;13.67;;;3.00;;
4278;SDS011;2153;47.744;10.580;2022-08-01T02:55:45;15.50;;;3.47;;
4278;SDS011;2153;47.744;10.580;2022-08-01T02:58:14;19.13;;;3.40;;
4278;SDS011;2153;47.744;10.580;2022-08-01T03:00:43;15.20;;;3.57;;
4278;SDS011;2153;47.744;10.580;2022-08-01T03:03:13;14.35;;;3.50;;
4278;SDS011;2153;47.744;10.580;2022-08-01T03:05:41;16.70;;;3.43;;
4278;SDS011;2153;47.744;10.580;2022-08-01T03:08:11;16.50;;;3.20;;
4278;SDS011;2153;47.744;10.580;2022-08-01T03:10:39;14.13;;;3.30;;
4278;SDS011;2153;47.744;10.580;2022-08-01T03:13:08;14.60;;;3.77;;
4278;SDS011;2153;47.744;10.580;2022-08-01T03:15:37;13.63;;;3.60;;
4278;SDS011;2153;47.744;10.580;2022-08-01T03:18:06;14.03;;;3.23;;
4278;SDS011;2153;47.744;10.580;2022-08-01T03:20:36;14.10;;;3.40;;
4278;SDS011;2153;47.744;10.580;2022-08-01T03:23:04;20.70;;;4.27;;
4278;SDS011;2153;47.744;10.580;2022-08-01T03:25:35;19.70;;;8.60;;
4278;SDS011;2153;47.744;10.580;2022-08-01T03:28:06;18.37;;;6.53;;
4278;SDS011;2153;47.744;10.580;2022-08-01T03:30:34;21.70;;;8.30;;
4278;SDS011;2153;47.744;10.580;2022-08-01T03:33:02;21.67;;;9.17;;
4278;SDS011;2153;47.744;10.580;2022-08-01T03:35:30;20.20;;;7.20;;
4278;SDS011;2153;47.744;10.580;2022-08-01T03:37:59;15.83;;;5.63;;
4278;SDS011;2153;47.744;10.580;2022-08-01T03:40:30;16.30;;;4.30;;
4278;SDS011;2153;47.744;10.580;2022-08-01T03:43:03;14.40;;;4.43;;
4278;SDS011;2153;47.744;10.580;2022-08-01T03:45:34;13.97;;;3.97;;
4278;SDS011;2153;47.744;10.580;2022-08-01T03:48:05;16.63;;;4.40;;
4278;SDS011;2153;47.744;10.580;2022-08-01T03:50:35;14.67;;;4.00;;
4278;SDS011;2153;47.744;10.580;2022-08-01T03:53:05;15.30;;;3.60;;
4278;SDS011;2153;47.744;10.580;2022-08-01T03:55:35;14.30;;;4.27;;
4278;SDS011;2153;47.744;10.580;2022-08-01T03:58:05;14.10;;;4.00;;
4278;SDS011;2153;47.744;10.580;2022-08-01T04:00:33;16.83;;;3.87;;
4278;SDS011;2153;47.744;10.580;2022-08-01T04:03:03;16.30;;;4.47;;
4278;SDS011;2153;47.744;10.580;2022-08-01T04:05:30;14.40;;;4.20;;
4278;SDS011;2153;47.744;10.580;2022-08-01T04:07:57;15.75;;;4.20;;
4278;SDS011;2153;47.744;10.580;2022-08-01T04:10:26;13.90;;;3.97;;
4278;SDS011;2153;47.744;10.580;2022-08-01T04:12:53;16.00;;;4.17;;
4278;SDS011;2153;47.744;10.580;2022-08-01T04:15:21;15.23;;;3.83;;
4278;SDS011;2153;47.744;10.580;2022-08-01T04:17:48;15.87;;;4.23;;
4278;SDS011;2153;47.744;10.580;2022-08-01T04:20:15;16.53;;;4.43;;
4278;SDS011;2153;47.744;10.580;2022-08-01T04:22:42;17.10;;;4.40;;
4278;SDS011;2153;47.744;10.580;2022-08-01T04:25:11;16.07;;;4.40;;
4278;SDS011;2153;47.744;10.580;2022-08-01T04:27:42;14.83;;;4.20;;
4278;SDS011;2153;47.744;10.580;2022-08-01T04:30:13;17.00;;;4.57;;
4278;SDS011;2153;47.744;10.580;2022-08-01T04:32:42;16.77;;;4.63;;
4278;SDS011;2153;47.744;10.580;2022-08-01T04:35:11;24.93;;;4.30;;
4278;SDS011;2153;47.744;10.580;2022-08-01T04:37:41;16.63;;;4.10;;
4278;SDS011;2153;47.744;10.580;2022-08-01T04:40:10;14.20;;;3.53;;
4278;SDS011;2153;47.744;10.580;2022-08-01T04:42:38;15.13;;;4.33;;
4278;SDS011;2153;47.744;10.580;2022-08-01T04:45:05;15.40;;;4.70;;
4278;SDS011;2153;47.744;10.580;2022-08-01T04:47:34;19.57;;;4.10;;
4278;SDS011;2153;47.744;10.580;2022-08-01T04:50:04;16.93;;;3.83;;
4278;SDS011;2153;47.744;10.580;2022-08-01T04:52:33;19.90;;;4.60;;
4278;SDS011;2153;47.744;10.580;2022-08-01T04:55:00;15.10;;;4.23;;
4278;SDS011;2153;47.744;10.580;2022-08-01T04:57:27;16.10;;;4.50;;
4278;SDS011;2153;47.744;10.580;2022-08-01T04:59:54;15.30;;;3.90;;
4278;SDS011;2153;47.744;10.580;2022-08-01T05:02:22;15.37;;;4.13;;
4278;SDS011;2153;47.744;10.580;2022-08-01T05:04:52;14.50;;;3.77;;
4278;SDS011;2153;47.744;10.580;2022-08-01T05:07:21;14.30;;;4.00;;
4278;SDS011;2153;47.744;10.580;2022-08-01T05:09:48;16.73;;;4.17;;
4278;SDS011;2153;47.744;10.580;2022-08-01T05:12:15;13.60;;;4.10;;
4278;SDS011;2153;47.744;10.580;2022-08-01T05:14:42;16.23;;;3.70;;
4278;SDS011;2153;47.744;10.580;2022-08-01T05:17:09;21.63;;;4.43;;
4278;SDS011;2153;47.744;10.580;2022-08-01T05:19:37;20.20;;;4.20;;
4278;SDS011;2153;47.744;10.580;2022-08-01T05:22:05;20.07;;;4.20;;
4278;SDS011;2153;47.744;10.580;2022-08-01T05:24:35;14.07;;;3.70;;
4278;SDS011;2153;47.744;10.580;2022-08-01T05:27:04;14.37;;;4.30;;
4278;SDS011;2153;47.744;10.580;2022-08-01T05:29:31;19.40;;;5.00;;
4278;SDS011;2153;47.744;10.580;2022-08-01T05:31:58;14.20;;;4.07;;
4278;SDS011;2153;47.744;10.580;2022-08-01T05:34:26;14.70;;;3.63;;
4278;SDS011;2153;47.744;10.580;2022-08-01T05:36:53;13.87;;;4.17;;
4278;SDS011;2153;47.744;10.580;2022-08-01T05:39:20;19.73;;;4.50;;
4278;SDS011;2153;47.744;10.580;2022-08-01T05:41:48;14.60;;;4.50;;
4278;SDS011;2153;47.744;10.580;2022-08-01T05:44:15;14.53;;;4.30;;
4278;SDS011;2153;47.744;10.580;2022-08-01T05:46:42;22.50;;;4.20;;
4278;SDS011;2153;47.744;10.580;2022-08-01T05:49:09;18.80;;;4.80;;
4278;SDS011;2153;47.744;10.580;2022-08-01T05:51:35;14.10;;;3.97;;
4278;SDS011;2153;47.744;10.580;2022-08-01T05:54:02;14.60;;;4.37;;
4278;SDS011;2153;47.744;10.580;2022-08-01T05:56:29;16.63;;;4.67;;
4278;SDS011;2153;47.744;10.580;2022-08-01T05:58:57;13.80;;;4.10;;
4278;SDS011;2153;47.744;10.580;2022-08-01T06:01:24;19.30;;;4.93;;
4278;SDS011;2153;47.744;10.580;2022-08-01T06:03:50;27.43;;;4.20;;
4278;SDS011;2153;47.744;10.580;2022-08-01T06:06:19;14.20;;;3.27;;
4278;SDS011;2153;47.744;10.580;2022-08-01T06:08:46;13.83;;;3.87;;
4278;SDS011;2153;47.744;10.580;2022-08-01T06:11:12;14.87;;;3.83;;
4278;SDS011;2153;47.744;10.580;2022-08-01T06:13:39;15.40;;;4.17;;
4278;SDS011;2153;47.744;10.580;2022-08-01T06:16:07;15.93;;;3.70;;
4278;SDS011;2153;47.744;10.580;2022-08-01T06:18:34;16.00;;;3.73;;
4278;SDS011;2153;47.744;10.580;2022-08-01T06:21:01;14.90;;;3.53;;
4278;SDS011;2153;47.744;10.580;2022-08-01T06:23:28;13.90;;;3.20;;
4278;SDS011;2153;47.744;10.580;2022-08-01T06:25:54;12.83;;;2.87;;
4278;SDS011;2153;47.744;10.580;2022-08-01T06:28:22;14.93;;;3.70;;
4278;SDS011;2153;47.744;10.580;2022-08-01T06:30:49;13.50;;;2.83;;
4278;SDS011;2153;47.744;10.580;2022-08-01T06:33:18;15.50;;;3.20;;
4278;SDS011;2153;47.744;10.580;2022-08-01T06:35:44;13.23;;;2.90;;
4278;SDS011;2153;47.744;10.580;2022-08-01T06:38:11;14.97;;;3.27;;
4278;SDS011;2153;47.744;10.580;2022-08-01T06:40:38;15.60;;;2.87;;
4278;SDS011;2153;47.744;10.580;2022-08-01T06:43:04;14.17;;;2.87;;
4278;SDS011;2153;47.744;10.580;2022-08-01T06:45:31;12.70;;;2.80;;
4278;SDS011;2153;47.744;10.580;2022-08-01T06:47:58;13.73;;;2.90;;
4278;SDS011;2153;47.744;10.580;2022-08-01T06:50:26;13.03;;;2.80;;
4278;SDS011;2153;47.744;10.580;2022-08-01T06:52:52;12.40;;;3.07;;
4278;SDS011;2153;47.744;10.580;2022-08-01T06:55:19;13.60;;;2.90;;
4278;SDS011;2153;47.744;10.580;2022-08-01T06:57:47;15.30;;;2.63;;
4278;SDS011;2153;47.744;10.580;2022-08-01T07:00:15;13.00;;;2.57;;
4278;SDS011;2153;47.744;10.580;2022-08-01T07:02:43;12.43;;;2.90;;
4278;SDS011;2153;47.744;10.580;2022-08-01T07:05:10;15.77;;;3.33;;
4278;SDS011;2153;47.744;10.580;2022-08-01T07:07:38;12.00;;;2.50;;
4278;SDS011;2153;47.744;10.580;2022-08-01T07:10:05;12.77;;;2.90;;
4278;SDS011;2153;47.744;10.580;2022-08-01T07:12:33;11.60;;;2.67;;
4278;SDS011;2153;47.744;10.580;2022-08-01T07:15:01;12.00;;;2.70;;
4278;SDS011;2153;47.744;10.580;2022-08-01T07:17:28;12.63;;;2.57;;
4278;SDS011;2153;47.744;10.580;2022-08-01T07:19:55;11.80;;;2.70;;
4278;SDS011;2153;47.744;10.580;2022-08-01T07:22:22;11.77;;;2.40;;
4278;SDS011;2153;47.744;10.580;2022-08-01T07:24:50;11.83;;;2.30;;
4278;SDS011;2153;47.744;10.580;2022-08-01T07:27:16;18.03;;;3.10;;
4278;SDS011;2153;47.744;10.580;2022-08-01T07:29:43;14.57;;;2.77;;
4278;SDS011;2153;47.744;10.580;2022-08-01T07:32:10;18.13;;;2.37;;
4278;SDS011;2153;47.744;10.580;2022-08-01T07:34:36;23.97;;;2.70;;
4278;SDS011;2153;47.744;10.580;2022-08-01T07:37:03;12.17;;;2.40;;
4278;SDS011;2153;47.744;10.580;2022-08-01T07:39:30;11.40;;;2.43;;
4278;SDS011;2153;47.744;10.580;2022-08-01T07:41:58;12.53;;;2.97;;
4278;SDS011;2153;47.744;10.580;2022-08-01T07:44:25;11.70;;;2.33;;
4278;SDS011;2153;47.744;10.580;2022-08-01T07:46:51;11.60;;;2.40;;
4278;SDS011;2153;47.744;10.580;2022-08-01T07:49:18;13.30;;;2.70;;
4278;SDS011;2153;47.744;10.580;2022-08-01T07:51:46;12.63;;;2.60;;
4278;SDS011;2153;47.744;10.580;2022-08-01T07:54:13;11.87;;;2.63;;
4278;SDS011;2153;47.744;10.580;2022-08-01T07:56:40;12.50;;;2.50;;
4278;SDS011;2153;47.744;10.580;2022-08-01T07:59:08;12.30;;;2.63;;
4278;SDS011;2153;47.744;10.580;2022-08-01T08:01:34;13.73;;;2.80;;
4278;SDS011;2153;47.744;10.580;2022-08-01T08:04:01;11.93;;;2.67;;
4278;SDS011;2153;47.744;10.580;2022-08-01T08:06:28;18.57;;;2.27;;
4278;SDS011;2153;47.744;10.580;2022-08-01T08:08:55;11.53;;;2.30;;
4278;SDS011;2153;47.744;10.580;2022-08-01T08:11:21;11.50;;;2.40;;
4278;SDS011;2153;47.744;10.580;2022-08-01T08:13:48;11.93;;;2.73;;
4278;SDS011;2153;47.744;10.580;2022-08-01T08:16:16;12.63;;;2.73;;
4278;SDS011;2153;47.744;10.580;2022-08-01T08:18:43;11.70;;;2.50;;
4278;SDS011;2153;47.744;10.580;2022-08-01T08:21:09;11.80;;;2.60;;
4278;SDS011;2153;47.744;10.580;2022-08-01T08:23:36;11.80;;;2.73;;
4278;SDS011;2153;47.744;10.580;2022-08-01T08:26:21;12.10;;;3.03;;
4278;SDS011;2153;47.744;10.580;2022-08-01T08:28:48;13.07;;;2.60;;
4278;SDS011;2153;47.744;10.580;2022-08-01T08:31:16;16.90;;;2.83;;
4278;SDS011;2153;47.744;10.580;2022-08-01T08:33:43;12.10;;;2.63;;
4278;SDS011;2153;47.744;10.580;2022-08-01T08:36:09;11.63;;;2.90;;
4278;SDS011;2153;47.744;10.580;2022-08-01T08:38:37;14.47;;;2.63;;
4278;SDS011;2153;47.744;10.580;2022-08-01T08:41:03;12.90;;;2.77;;
4278;SDS011;2153;47.744;10.580;2022-08-01T08:43:30;15.13;;;3.03;;
4278;SDS011;2153;47.744;10.580;2022-08-01T08:45:57;13.33;;;2.90;;
4278;SDS011;2153;47.744;10.580;2022-08-01T08:48:25;16.03;;;2.93;;
4278;SDS011;2153;47.744;10.580;2022-08-01T08:50:53;15.47;;;2.93;;
4278;SDS011;2153;47.744;10.580;2022-08-01T08:53:21;12.17;;;2.80;;
4278;SDS011;2153;47.744;10.580;2022-08-01T08:55:48;13.60;;;2.90;;
4278;SDS011;2153;47.744;10.580;2022-08-01T08:58:15;12.20;;;2.70;;
4278;SDS011;2153;47.744;10.580;2022-08-01T09:00:45;11.83;;;2.80;;
4278;SDS011;2153;47.744;10.580;2022-08-01T09:03:11;12.57;;;3.00;;
4278;SDS011;2153;47.744;10.580;2022-08-01T09:05:39;12.77;;;2.70;;
4278;SDS011;2153;47.744;10.580;2022-08-01T09:08:08;11.70;;;2.47;;
4278;SDS011;2153;47.744;10.580;2022-08-01T09:10:34;11.00;;;2.70;;
4278;SDS011;2153;47.744;10.580;2022-08-01T09:13:02;12.07;;;3.13;;
4278;SDS011;2153;47.744;10.580;2022-08-01T09:15:37;12.37;;;2.90;;
4278;SDS011;2153;47.744;10.580;2022-08-01T09:18:05;12.60;;;3.13;;
4278;SDS011;2153;47.744;10.580;2022-08-01T09:20:32;14.93;;;2.60;;
4278;SDS011;2153;47.744;10.580;2022-08-01T09:23:01;11.00;;;2.40;;
4278;SDS011;2153;47.744;10.580;2022-08-01T09:25:28;11.80;;;2.53;;
4278;SDS011;2153;47.744;10.580;2022-08-01T09:28:01;12.07;;;2.20;;
4278;SDS011;2153;47.744;10.580;2022-08-01T09:30:30;13.27;;;3.43;;
4278;SDS011;2153;47.744;10.580;2022-08-01T09:33:03;12.47;;;2.60;;
4278;SDS011;2153;47.744;10.580;2022-08-01T09:35:31;13.13;;;2.80;;
4278;SDS011;2153;47.744;10.580;2022-08-01T09:38:17;10.43;;;2.43;;
4278;SDS011;2153;47.744;10.580;2022-08-01T09:40:46;11.20;;;2.80;;
4278;SDS011;2153;47.744;10.580;2022-08-01T09:43:15;13.33;;;2.43;;
4278;SDS011;2153;47.744;10.580;2022-08-01T09:45:42;10.97;;;2.70;;
4278;SDS011;2153;47.744;10.580;2022-08-01T09:48:09;12.60;;;3.00;;
4278;SDS011;2153;47.744;10.580;2022-08-01T09:50:39;10.70;;;2.50;;
4278;SDS011;2153;47.744;10.580;2022-08-01T09:53:07;18.20;;;2.57;;
4278;SDS011;2153;47.744;10.580;2022-08-01T09:55:35;13.23;;;3.03;;
4278;SDS011;2153;47.744;10.580;2022-08-01T09:58:03;13.30;;;2.53;;
4278;SDS011;2153;47.744;10.580;2022-08-01T10:00:30;15.03;;;2.30;;
4278;SDS011;2153;47.744;10.580;2022-08-01T10:02:57;14.73;;;2.87;;
4278;SDS011;2153;47.744;10.580;2022-08-01T10:05:31;13.60;;;2.40;;
4278;SDS011;2153;47.744;10.580;2022-08-01T10:07:59;11.77;;;2.50;;
4278;SDS011;2153;47.744;10.580;2022-08-01T10:10:28;11.17;;;2.43;;
4278;SDS011;2153;47.744;10.580;2022-08-01T10:12:56;11.53;;;2.00;;
4278;SDS011;2153;47.744;10.580;2022-08-01T10:15:24;11.65;;;2.10;;
4278;SDS011;2153;47.744;10.580;2022-08-01T10:17:52;11.05;;;2.08;;
4278;SDS011;2153;47.744;10.580;2022-08-01T10:20:20;12.05;;;2.03;;
4278;SDS011;2153;47.744;10.580;2022-08-01T10:22:50;11.88;;;2.30;;
4278;SDS011;2153;47.744;10.580;2022-08-01T10:25:19;10.98;;;2.20;;
4278;SDS011;2153;47.744;10.580;2022-08-01T10:27:47;10.18;;;2.13;;
4278;SDS011;2153;47.744;10.580;2022-08-01T10:30:18;9.90;;;1.97;;
4278;SDS011;2153;47.744;10.580;2022-08-01T10:32:45;10.73;;;1.90;;
4278;SDS011;2153;47.744;10.580;2022-08-01T10:35:12;11.68;;;2.60;;
4278;SDS011;2153;47.744;10.580;2022-08-01T10:37:42;10.98;;;1.88;;
4278;SDS011;2153;47.744;10.580;2022-08-01T10:40:11;17.58;;;1.90;;
4278;SDS011;2153;47.744;10.580;2022-08-01T10:42:38;10.13;;;2.13;;
4278;SDS011;2153;47.744;10.580;2022-08-01T10:45:06;10.15;;;1.83;;
4278;SDS011;2153;47.744;10.580;2022-08-01T10:47:37;9.95;;;1.67;;
4278;SDS011;2153;47.744;10.580;2022-08-01T10:50:11;9.65;;;1.65;;
4278;SDS011;2153;47.744;10.580;2022-08-01T10:55:50;10.40;;;2.10;;
4278;SDS011;2153;47.744;10.580;2022-08-01T10:58:22;11.80;;;1.88;;
4278;SDS011;2153;47.744;10.580;2022-08-01T11:04:08;11.15;;;2.22;;
4278;SDS011;2153;47.744;10.580;2022-08-01T11:06:41;11.20;;;2.28;;
4278;SDS011;2153;47.744;10.580;2022-08-01T11:09:16;10.90;;;1.85;;
4278;SDS011;2153;47.744;10.580;2022-08-01T11:11:59;10.95;;;2.08;;
4278;SDS011;2153;47.744;10.580;2022-08-01T11:14:29;10.63;;;2.13;;
4278;SDS011;2153;47.744;10.580;2022-08-01T11:17:11;12.00;;;1.80;;
4278;SDS011;2153;47.744;10.580;2022-08-01T11:20:06;15.87;;;1.77;;
4278;SDS011;2153;47.744;10.580;2022-08-01T11:28:32;12.20;;;1.70;;
4278;SDS011;2153;47.744;10.580;2022-08-01T11:33:56;13.93;;;1.67;;
4278;SDS011;2153;47.744;10.580;2022-08-01T11:36:25;12.83;;;1.80;;
4278;SDS011;2153;47.744;10.580;2022-08-01T11:39:11;11.50;;;1.90;;
4278;SDS011;2153;47.744;10.580;2022-08-01T11:41:40;11.10;;;2.10;;
4278;SDS011;2153;47.744;10.580;2022-08-01T11:44:08;10.37;;;1.90;;
4278;SDS011;2153;47.744;10.580;2022-08-01T11:52:24;11.37;;;2.27;;
4278;SDS011;2153;47.744;10.580;2022-08-01T11:54:53;11.63;;;2.17;;
4278;SDS011;2153;47.744;10.580;2022-08-01T11:57:21;11.73;;;2.30;;
4278;SDS011;2153;47.744;10.580;2022-08-01T11:59:49;12.43;;;1.97;;
4278;SDS011;2153;47.744;10.580;2022-08-01T12:02:18;10.97;;;1.73;;
4278;SDS011;2153;47.744;10.580;2022-08-01T12:04:48;10.10;;;1.70;;
4278;SDS011;2153;47.744;10.580;2022-08-01T12:07:16;19.00;;;2.03;;
4278;SDS011;2153;47.744;10.580;2022-08-01T12:09:45;12.17;;;2.07;;
4278;SDS011;2153;47.744;10.580;2022-08-01T12:12:14;13.77;;;2.13;;
4278;SDS011;2153;47.744;10.580;2022-08-01T12:14:43;11.10;;;1.80;;
4278;SDS011;2153;47.744;10.580;2022-08-01T12:17:11;10.10;;;1.40;;
4278;SDS011;2153;47.744;10.580;2022-08-01T12:19:38;14.00;;;2.23;;
4278;SDS011;2153;47.744;10.580;2022-08-01T12:22:07;10.80;;;1.77;;
4278;SDS011;2153;47.744;10.580;2022-08-01T12:24:36;10.90;;;2.00;;
4278;SDS011;2153;47.744;10.580;2022-08-01T12:27:06;11.37;;;1.70;;
4278;SDS011;2153;47.744;10.580;2022-08-01T12:29:34;11.90;;;1.60;;
4278;SDS011;2153;47.744;10.580;2022-08-01T12:32:03;11.70;;;2.00;;
4278;SDS011;2153;47.744;10.580;2022-08-01T12:34:30;11.97;;;1.77;;
4278;SDS011;2153;47.744;10.580;2022-08-01T12:37:00;10.40;;;1.80;;
4278;SDS011;2153;47.744;10.580;2022-08-01T12:39:29;17.60;;;1.80;;
4278;SDS011;2153;47.744;10.580;2022-08-01T12:41:57;11.13;;;1.70;;
4278;SDS011;2153;47.744;10.580;2022-08-01T12:44:25;11.30;;;1.53;;
4278;SDS011;2153;47.744;10.580;2022-08-01T12:46:53;11.80;;;1.77;;
4278;SDS011;2153;47.744;10.580;2022-08-01T12:49:20;10.63;;;1.50;;
4278;SDS011;2153;47.744;10.580;2022-08-01T12:51:47;19.13;;;1.60;;
4278;SDS011;2153;47.744;10.580;2022-08-01T12:54:14;11.33;;;1.90;;
4278;SDS011;2153;47.744;10.580;2022-08-01T12:56:41;12.30;;;2.07;;
4278;SDS011;2153;47.744;10.580;2022-08-01T12:59:20;11.70;;;1.80;;
4278;SDS011;2153;47.744;10.580;2022-08-01T13:01:51;13.37;;;1.70;;
4278;SDS011;2153;47.744;10.580;2022-08-01T13:04:18;11.20;;;2.20;;
4278;SDS011;2153;47.744;10.580;2022-08-01T13:06:45;11.50;;;1.67;;
4278;SDS011;2153;47.744;10.580;2022-08-01T13:09:12;18.83;;;1.53;;
4278;SDS011;2153;47.744;10.580;2022-08-01T13:11:39;10.30;;;1.70;;
4278;SDS011;2153;47.744;10.580;2022-08-01T13:14:06;12.70;;;1.60;;
4278;SDS011;2153;47.744;10.580;2022-08-01T13:16:34;12.77;;;1.70;;
4278;SDS011;2153;47.744;10.580;2022-08-01T13:19:13;11.50;;;1.73;;
4278;SDS011;2153;47.744;10.580;2022-08-01T13:21:54;12.07;;;1.50;;
4278;SDS011;2153;47.744;10.580;2022-08-01T13:24:23;10.60;;;2.27;;
4278;SDS011;2153;47.744;10.580;2022-08-01T13:26:52;10.30;;;1.20;;
4278;SDS011;2153;47.744;10.580;2022-08-01T13:29:22;10.70;;;1.67;;
4278;SDS011;2153;47.744;10.580;2022-08-01T13:31:56;10.10;;;1.60;;
4278;SDS011;2153;47.744;10.580;2022-08-01T13:34:31;13.40;;;1.80;;
4278;SDS011;2153;47.744;10.580;2022-08-01T13:36:59;15.17;;;1.40;;
4278;SDS011;2153;47.744;10.580;2022-08-01T13:39:27;10.13;;;1.33;;
4278;SDS011;2153;47.744;10.580;2022-08-01T13:42:11;12.40;;;1.30;;
4278;SDS011;2153;47.744;10.580;2022-08-01T13:44:39;11.60;;;1.67;;
4278;SDS011;2153;47.744;10.580;2022-08-01T13:47:06;9.90;;;1.33;;
4278;SDS011;2153;47.744;10.580;2022-08-01T13:49:35;10.37;;;1.30;;
4278;SDS011;2153;47.744;10.580;2022-08-01T13:52:02;10.10;;;1.43;;
4278;SDS011;2153;47.744;10.580;2022-08-01T13:54:31;11.57;;;1.30;;
4278;SDS011;2153;47.744;10.580;2022-08-01T13:56:58;11.37;;;1.60;;
4278;SDS011;2153;47.744;10.580;2022-08-01T13:59:24;10.50;;;1.50;;
4278;SDS011;2153;47.744;10.580;2022-08-01T14:01:51;12.00;;;1.53;;
4278;SDS011;2153;47.744;10.580;2022-08-01T14:04:18;9.60;;;1.10;;
4278;SDS011;2153;47.744;10.580;2022-08-01T14:06:47;12.80;;;1.50;;
4278;SDS011;2153;47.744;10.580;2022-08-01T14:09:14;10.53;;;1.30;;
4278;SDS011;2153;47.744;10.580;2022-08-01T14:11:44;11.27;;;1.47;;
4278;SDS011;2153;47.744;10.580;2022-08-01T14:14:11;10.87;;;1.47;;
4278;SDS011;2153;47.744;10.580;2022-08-01T14:16:38;11.47;;;1.33;;
4278;SDS011;2153;47.744;10.580;2022-08-01T14:19:05;10.03;;;1.40;;
4278;SDS011;2153;47.744;10.580;2022-08-01T14:21:31;20.07;;;1.50;;
4278;SDS011;2153;47.744;10.580;2022-08-01T14:23:59;12.03;;;0.97;;
4278;SDS011;2153;47.744;10.580;2022-08-01T14:26:26;10.57;;;1.50;;
4278;SDS011;2153;47.744;10.580;2022-08-01T14:28:53;11.70;;;1.70;;
4278;SDS011;2153;47.744;10.580;2022-08-01T14:31:20;18.83;;;1.80;;
4278;SDS011;2153;47.744;10.580;2022-08-01T14:33:46;10.80;;;1.63;;
4278;SDS011;2153;47.744;10.580;2022-08-01T14:36:13;11.67;;;1.87;;
4278;SDS011;2153;47.744;10.580;2022-08-01T14:38:40;13.07;;;1.63;;
4278;SDS011;2153;47.744;10.580;2022-08-01T14:41:08;14.63;;;1.80;;
4278;SDS011;2153;47.744;10.580;2022-08-01T14:43:35;11.37;;;1.80;;
4278;SDS011;2153;47.744;10.580;2022-08-01T14:46:01;10.50;;;1.53;;
4278;SDS011;2153;47.744;10.580;2022-08-01T14:48:28;10.60;;;1.47;;
4278;SDS011;2153;47.744;10.580;2022-08-01T14:50:55;16.80;;;1.40;;
4278;SDS011;2153;47.744;10.580;2022-08-01T14:53:22;14.37;;;1.40;;
4278;SDS011;2153;47.744;10.580;2022-08-01T14:55:49;11.50;;;1.50;;
4278;SDS011;2153;47.744;10.580;2022-08-01T14:58:17;12.57;;;1.47;;
4278;SDS011;2153;47.744;10.580;2022-08-01T15:00:44;23.83;;;1.70;;
4278;SDS011;2153;47.744;10.580;2022-08-01T15:03:10;11.43;;;1.40;;
4278;SDS011;2153;47.744;10.580;2022-08-01T15:05:37;12.53;;;1.60;;
4278;SDS011;2153;47.744;10.580;2022-08-01T15:08:05;11.00;;;1.20;;
4278;SDS011;2153;47.744;10.580;2022-08-01T15:10:32;12.57;;;1.50;;
4278;SDS011;2153;47.744;10.580;2022-08-01T15:12:59;11.10;;;1.40;;
4278;SDS011;2153;47.744;10.580;2022-08-01T15:15:27;11.33;;;1.30;;
4278;SDS011;2153;47.744;10.580;2022-08-01T15:17:54;13.27;;;1.80;;